createdAt,value
2022-09-07T00:01:52.104Z,57.06
2022-09-07T00:04:20.883Z,57.88
2022-09-07T00:06:48.387Z,56.82
2022-09-07T00:09:16.344Z,57.22
2022-09-07T00:11:43.618Z,57.58
2022-09-07T00:14:11.200Z,58.07
2022-09-07T00:16:39.025Z,57.64
2022-09-07T00:19:06.394Z,57.42
2022-09-07T00:21:35.220Z,57.28
2022-09-07T00:24:03.224Z,57.96
2022-09-07T00:26:31.980Z,58.23
2022-09-07T00:29:01.539Z,59.04
2022-09-07T00:31:30.938Z,58.84
2022-09-07T00:34:00.719Z,59.39
2022-09-07T00:36:28.054Z,60.04
2022-09-07T00:38:57.214Z,59.62
2022-09-07T00:41:24.837Z,60.41
2022-09-07T00:43:54.306Z,60.07
2022-09-07T00:46:24.147Z,60.34
2022-09-07T00:48:55.588Z,60.09
2022-09-07T00:51:27.993Z,60.71
2022-09-07T00:53:58.838Z,60.37
2022-09-07T00:56:31.212Z,60.50
2022-09-07T00:58:59.107Z,60.56
2022-09-07T01:01:26.531Z,60.87
2022-09-07T01:03:57.486Z,61.06
2022-09-07T01:06:27.896Z,61.01
2022-09-07T01:09:01.600Z,61.17
2022-09-07T01:11:30.830Z,61.03
2022-09-07T01:13:58.827Z,60.98
2022-09-07T01:16:41.816Z,61.02
2022-09-07T01:19:37.761Z,60.38
2022-09-07T01:22:24.592Z,60.24
2022-09-07T01:25:04.626Z,60.04
2022-09-07T01:27:57.107Z,60.31
2022-09-07T01:30:25.818Z,60.15
2022-09-07T01:33:11.754Z,59.70
2022-09-07T01:35:47.441Z,60.86
2022-09-07T01:38:21.642Z,61.00
2022-09-07T01:40:55.743Z,61.26
2022-09-07T01:43:33.635Z,61.38
2022-09-07T01:46:05.475Z,62.02
2022-09-07T01:48:36.515Z,62.17
2022-09-07T01:51:05.316Z,61.95
2022-09-07T01:53:37.887Z,61.83
2022-09-07T01:56:10.288Z,62.03
2022-09-07T01:58:44.019Z,62.32
2022-09-07T02:01:20.419Z,62.37
2022-09-07T02:03:52.035Z,62.22
2022-09-07T02:06:22.847Z,62.48
2022-09-07T02:08:56.381Z,62.42
2022-09-07T02:11:29.021Z,62.50
2022-09-07T02:13:59.922Z,62.30
2022-09-07T02:16:27.815Z,62.48
2022-09-07T02:18:57.066Z,62.15
2022-09-07T02:21:29.510Z,62.00
2022-09-07T02:24:02.697Z,61.37
2022-09-07T02:26:30.739Z,61.45
2022-09-07T02:28:59.850Z,61.27
2022-09-07T02:31:27.357Z,61.08
2022-09-07T02:33:54.702Z,60.71
2022-09-07T02:36:26.628Z,60.40
2022-09-07T02:38:53.802Z,60.53
2022-09-07T02:41:32.094Z,60.90
2022-09-07T02:44:03.286Z,60.36
2022-09-07T02:46:45.146Z,60.13
2022-09-07T02:49:27.290Z,59.91
2022-09-07T02:52:09.472Z,60.19
2022-09-07T02:54:52.626Z,60.28
2022-09-07T02:57:26.631Z,60.05
2022-09-07T03:00:05.517Z,59.67
2022-09-07T03:02:45.227Z,59.54
2022-09-07T03:05:17.639Z,60.32
2022-09-07T03:07:50.214Z,59.62
2022-09-07T03:10:19.195Z,60.12
2022-09-07T03:12:49.425Z,59.65
2022-09-07T03:15:20.887Z,59.07
2022-09-07T03:17:49.238Z,59.75
2022-09-07T03:20:17.710Z,59.93
2022-09-07T03:22:46.947Z,60.35
2022-09-07T03:25:16.957Z,59.13
2022-09-07T03:27:44.679Z,59.11
2022-09-07T03:30:13.121Z,60.00
2022-09-07T03:32:42.222Z,59.65
2022-09-07T03:35:10.071Z,59.56
2022-09-07T03:37:37.858Z,59.80
2022-09-07T03:40:08.982Z,59.88
2022-09-07T03:42:37.400Z,59.87
2022-09-07T03:45:09.622Z,59.88
2022-09-07T03:47:37.732Z,60.59
2022-09-07T03:50:08.681Z,61.15
2022-09-07T03:52:37.720Z,61.12
2022-09-07T03:55:07.990Z,60.99
2022-09-07T03:57:35.503Z,61.11
2022-09-07T04:00:04.886Z,60.46
2022-09-07T04:02:32.188Z,60.54
2022-09-07T04:04:59.487Z,60.05
2022-09-07T04:07:28.688Z,60.59
2022-09-07T04:09:55.894Z,60.69
2022-09-07T04:12:23.253Z,60.58
2022-09-07T04:14:51.145Z,61.09
2022-09-07T04:17:18.545Z,61.51
2022-09-07T04:19:45.858Z,61.08
2022-09-07T04:22:13.412Z,61.25
2022-09-07T04:24:42.314Z,61.79
2022-09-07T04:27:09.634Z,61.84
2022-09-07T04:29:37.177Z,61.76
2022-09-07T04:32:04.438Z,61.87
2022-09-07T04:34:31.780Z,62.12
2022-09-07T04:36:59.776Z,61.64
2022-09-07T04:39:27.173Z,61.64
2022-09-07T04:41:55.795Z,61.61
2022-09-07T04:44:23.389Z,61.58
2022-09-07T04:46:50.815Z,61.59
2022-09-07T04:49:18.169Z,62.14
2022-09-07T04:51:45.735Z,61.80
2022-09-07T04:54:13.058Z,61.89
2022-09-07T04:56:40.547Z,62.01
2022-09-07T04:59:09.609Z,61.53
2022-09-07T05:01:37.044Z,62.04
2022-09-07T05:04:05.178Z,61.64
2022-09-07T05:06:33.133Z,62.07
2022-09-07T05:09:00.757Z,62.06
2022-09-07T05:11:29.925Z,62.26
2022-09-07T05:13:58.652Z,62.64
2022-09-07T05:16:28.132Z,62.08
2022-09-07T05:18:57.521Z,62.41
2022-09-07T05:21:28.020Z,61.84
2022-09-07T05:23:57.232Z,61.83
2022-09-07T05:26:26.545Z,62.27
2022-09-07T05:31:42.900Z,61.75
2022-09-07T05:36:58.419Z,60.79
2022-09-07T05:39:26.286Z,60.43
2022-09-07T05:41:53.522Z,59.34
2022-09-07T05:47:10.398Z,60.48
2022-09-07T05:49:37.687Z,60.19
2022-09-07T05:52:04.987Z,60.58
2022-09-07T05:54:32.720Z,59.19
2022-09-07T05:56:59.977Z,59.12
2022-09-07T05:59:27.251Z,59.83
2022-09-07T06:01:55.192Z,58.67
2022-09-07T06:04:23.983Z,59.66
2022-09-07T06:07:18.086Z,59.30
2022-09-07T06:12:26.315Z,59.43
2022-09-07T06:14:53.922Z,58.28
2022-09-07T06:17:21.193Z,59.01
2022-09-07T06:19:50.009Z,59.07
2022-09-07T06:22:17.647Z,58.27
2022-09-07T06:24:45.162Z,58.04
2022-09-07T06:27:12.714Z,58.45
2022-09-07T06:29:40.491Z,58.84
2022-09-07T06:34:56.821Z,57.98
2022-09-07T06:37:24.235Z,57.78
2022-09-07T06:39:51.619Z,57.70
2022-09-07T06:42:19.192Z,57.19
2022-09-07T06:44:46.517Z,57.94
2022-09-07T06:47:14.027Z,56.83
2022-09-07T06:49:41.581Z,57.90
2022-09-07T06:52:10.297Z,57.55
2022-09-07T06:57:25.234Z,55.94
2022-09-07T06:59:52.497Z,56.32
2022-09-07T07:02:19.838Z,55.72
2022-09-07T07:04:47.885Z,55.69
2022-09-07T07:07:16.572Z,55.93
2022-09-07T07:09:43.959Z,55.94
2022-09-07T07:12:11.674Z,55.49
2022-09-07T07:14:42.684Z,56.44
2022-09-07T07:17:12.906Z,54.83
2022-09-07T07:19:40.176Z,56.10
2022-09-07T07:22:24.008Z,54.66
2022-09-07T07:24:56.478Z,54.82
2022-09-07T07:27:23.803Z,55.33
2022-09-07T07:29:50.999Z,57.20
2022-09-07T07:32:18.600Z,56.26
2022-09-07T07:34:45.753Z,55.81
2022-09-07T07:37:12.893Z,55.02
2022-09-07T07:42:29.050Z,55.14
2022-09-07T07:47:48.401Z,52.45
2022-09-07T07:50:32.451Z,55.10
2022-09-07T07:55:48.604Z,53.91
2022-09-07T07:58:17.467Z,52.29
2022-09-07T08:00:54.167Z,54.50
2022-09-07T08:03:23.156Z,52.05
2022-09-07T08:05:50.592Z,51.35
2022-09-07T08:08:17.924Z,51.66
2022-09-07T08:10:45.915Z,54.67
2022-09-07T08:13:13.433Z,51.49
2022-09-07T08:15:42.585Z,52.12
2022-09-07T08:18:10.283Z,51.31
2022-09-07T08:20:37.760Z,52.69
2022-09-07T08:23:05.341Z,51.50
2022-09-07T08:25:33.327Z,51.52
2022-09-07T08:28:00.638Z,52.47
2022-09-07T08:30:28.146Z,51.84
2022-09-07T08:32:57.427Z,51.94
2022-09-07T08:35:25.108Z,49.88
2022-09-07T08:37:52.351Z,50.55
2022-09-07T08:40:20.212Z,50.79
2022-09-07T08:43:00.563Z,49.61
2022-09-07T08:45:34.035Z,50.27
2022-09-07T08:48:04.973Z,50.29
2022-09-07T08:50:39.668Z,51.22
2022-09-07T08:53:12.472Z,49.14
2022-09-07T08:55:45.563Z,50.05
2022-09-07T08:58:38.508Z,50.47
2022-09-07T09:04:17.993Z,51.45
2022-09-07T09:07:03.913Z,48.72
2022-09-07T09:09:41.547Z,49.77
2022-09-07T09:12:18.466Z,48.79
2022-09-07T09:14:58.429Z,50.15
2022-09-07T09:17:29.463Z,49.78
2022-09-07T09:20:08.909Z,47.99
2022-09-07T09:22:36.698Z,48.89
2022-09-07T09:25:17.030Z,49.20
2022-09-07T09:27:44.758Z,48.29
2022-09-07T09:30:14.403Z,48.60
2022-09-07T09:32:43.690Z,48.14
2022-09-07T09:35:16.851Z,48.11
2022-09-07T09:37:44.708Z,48.33
2022-09-07T09:40:24.406Z,48.64
2022-09-07T09:43:00.573Z,48.25
2022-09-07T09:45:30.186Z,48.60
2022-09-07T09:47:58.351Z,47.12
2022-09-07T09:53:25.684Z,47.60
2022-09-07T09:55:54.071Z,47.15
2022-09-07T10:01:27.067Z,45.39
2022-09-07T10:03:56.952Z,45.99
2022-09-07T10:06:27.946Z,44.98
2022-09-07T10:08:58.228Z,44.40
2022-09-07T10:14:33.325Z,45.91
2022-09-07T10:17:10.366Z,44.93
2022-09-07T10:19:39.477Z,44.74
2022-09-07T10:22:22.002Z,45.38
2022-09-07T10:24:50.372Z,46.11
2022-09-07T10:27:32.499Z,44.31
2022-09-07T10:30:00.319Z,45.33
2022-09-07T10:32:48.449Z,47.67
2022-09-07T10:35:21.270Z,45.21
2022-09-07T10:38:05.310Z,46.93
2022-09-07T10:40:35.178Z,45.18
2022-09-07T10:43:22.966Z,44.39
2022-09-07T10:46:05.217Z,44.92
2022-09-07T10:48:40.373Z,44.44
2022-09-07T10:51:16.256Z,43.07
2022-09-07T10:56:55.443Z,45.73
2022-09-07T11:06:54.364Z,45.98
2022-09-07T11:09:42.828Z,43.80
2022-09-07T11:12:17.437Z,43.51
2022-09-07T11:14:48.334Z,44.47
2022-09-07T11:17:18.861Z,44.90
2022-09-07T11:19:53.781Z,42.64
2022-09-07T11:22:34.979Z,43.36
2022-09-07T11:25:30.028Z,43.15
2022-09-07T11:28:01.247Z,44.48
2022-09-07T11:30:32.096Z,42.98
2022-09-07T11:33:05.183Z,43.05
2022-09-07T11:35:39.952Z,45.11
2022-09-07T11:38:22.834Z,43.53
2022-09-07T11:41:02.286Z,44.26
2022-09-07T11:43:35.571Z,43.02
2022-09-07T11:46:07.795Z,42.77
2022-09-07T11:49:00.350Z,44.61
2022-09-07T11:51:38.443Z,43.23
2022-09-07T11:54:19.388Z,43.64
2022-09-07T11:56:54.718Z,43.08
2022-09-07T11:59:36.732Z,42.45
2022-09-07T12:02:58.211Z,43.95
2022-09-07T12:05:44.889Z,43.67
2022-09-07T12:08:35.626Z,42.98
2022-09-07T12:11:23.367Z,44.94
2022-09-07T12:14:12.594Z,43.44
2022-09-07T12:16:57.109Z,41.90
2022-09-07T12:19:26.465Z,42.75
2022-09-07T12:21:58.935Z,42.84
2022-09-07T12:24:48.821Z,44.39
2022-09-07T12:27:39.236Z,42.90
2022-09-07T12:30:48.910Z,42.94
2022-09-07T12:33:30.844Z,43.53
2022-09-07T12:35:59.494Z,43.14
2022-09-07T12:39:03.468Z,43.57
2022-09-07T12:42:31.855Z,44.39
2022-09-07T12:44:39.537Z,42.76
2022-09-07T12:47:26.954Z,43.12
2022-09-07T12:50:20.276Z,42.90
2022-09-07T12:52:52.896Z,43.79
2022-09-07T12:58:49.415Z,44.00
2022-09-07T13:01:30.876Z,45.36
2022-09-07T13:04:26.405Z,43.10
2022-09-07T13:07:32.294Z,41.89
2022-09-07T13:10:01.224Z,43.35
2022-09-07T13:15:48.629Z,41.92
2022-09-07T13:18:40.985Z,44.72
2022-09-07T13:21:34.657Z,42.85
2022-09-07T13:24:47.641Z,43.43
2022-09-07T13:27:43.920Z,43.58
2022-09-07T13:30:30.516Z,45.11
2022-09-07T13:33:47.478Z,42.53
2022-09-07T13:36:25.661Z,42.91
2022-09-07T13:38:54.807Z,44.16
2022-09-07T13:41:27.667Z,44.74
2022-09-07T13:43:59.369Z,42.45
2022-09-07T13:46:47.493Z,41.54
2022-09-07T13:49:28.101Z,43.69
2022-09-07T13:52:00.747Z,44.30
2022-09-07T13:54:54.603Z,44.40
2022-09-07T13:57:29.197Z,43.88
2022-09-07T13:59:57.681Z,43.13
2022-09-07T14:02:28.189Z,43.64
2022-09-07T14:04:57.906Z,45.07
2022-09-07T14:07:27.227Z,46.06
2022-09-07T14:10:12.214Z,43.49
2022-09-07T14:12:47.211Z,44.09
2022-09-07T14:15:20.313Z,44.53
2022-09-07T14:17:49.659Z,44.12
2022-09-07T14:20:18.152Z,43.94
2022-09-07T14:22:49.399Z,42.96
2022-09-07T14:25:20.331Z,44.66
2022-09-07T14:27:51.710Z,43.43
2022-09-07T14:30:25.346Z,43.85
2022-09-07T14:32:54.946Z,44.55
2022-09-07T14:35:24.802Z,43.84
2022-09-07T14:37:53.322Z,44.30
2022-09-07T14:40:23.242Z,43.01
2022-09-07T14:42:53.747Z,44.39
2022-09-07T14:45:32.760Z,44.37
2022-09-07T14:48:11.220Z,44.33
2022-09-07T14:50:39.145Z,44.68
2022-09-07T14:56:09.790Z,45.62
2022-09-07T14:58:39.190Z,45.75
2022-09-07T15:04:17.314Z,45.46
2022-09-07T15:09:36.489Z,45.23
2022-09-07T15:12:12.387Z,45.08
2022-09-07T15:14:42.372Z,45.75
2022-09-07T15:20:30.436Z,46.01
2022-09-07T15:22:57.973Z,45.95
2022-09-07T15:25:26.012Z,46.72
2022-09-07T15:27:54.325Z,46.33
2022-09-07T15:30:23.070Z,47.12
2022-09-07T15:32:51.086Z,47.78
2022-09-07T15:35:18.559Z,46.54
2022-09-07T15:40:37.963Z,45.96
2022-09-07T15:43:19.507Z,47.45
2022-09-07T15:45:51.206Z,47.41
2022-09-07T15:48:21.279Z,47.77
2022-09-07T15:50:49.461Z,47.98
2022-09-07T15:56:07.896Z,47.68
2022-09-07T15:58:35.230Z,48.49
2022-09-07T16:03:53.413Z,48.16
2022-09-07T16:06:24.121Z,48.47
2022-09-07T16:08:51.918Z,48.74
2022-09-07T16:11:23.872Z,48.82
2022-09-07T16:13:55.143Z,48.76
2022-09-07T16:17:25.716Z,49.55
2022-09-07T16:19:13.717Z,49.34
2022-09-07T16:21:41.847Z,49.38
2022-09-07T16:24:09.334Z,48.54
2022-09-07T16:26:36.771Z,48.93
2022-09-07T16:29:05.678Z,49.35
2022-09-07T16:31:35.013Z,49.54
2022-09-07T16:34:02.825Z,49.45
2022-09-07T16:36:30.860Z,48.75
2022-09-07T16:39:00.510Z,50.17
2022-09-07T16:41:30.092Z,49.83
2022-09-07T16:43:58.438Z,50.47
2022-09-07T16:46:28.372Z,50.66
2022-09-07T16:48:57.612Z,51.06
2022-09-07T16:51:28.585Z,51.41
2022-09-07T16:53:57.547Z,51.41
2022-09-07T16:56:28.577Z,51.61
2022-09-07T16:58:57.347Z,51.63
2022-09-07T17:01:26.663Z,51.87
2022-09-07T17:03:54.721Z,51.32
2022-09-07T17:06:25.549Z,51.51
2022-09-07T17:08:53.765Z,51.51
2022-09-07T17:11:23.074Z,51.32
2022-09-07T17:13:51.530Z,51.50
2022-09-07T17:16:22.043Z,51.82
2022-09-07T17:21:39.797Z,52.23
2022-09-07T17:24:09.503Z,52.78
2022-09-07T17:26:37.554Z,52.69
2022-09-07T17:29:04.885Z,53.60
2022-09-07T17:34:21.849Z,53.83
2022-09-07T17:36:51.554Z,53.91
2022-09-07T17:39:19.701Z,53.49
2022-09-07T17:41:48.168Z,53.72
2022-09-07T17:44:16.904Z,53.65
2022-09-07T17:46:44.308Z,53.66
2022-09-07T17:49:12.149Z,54.00
2022-09-07T17:51:40.095Z,54.03
2022-09-07T17:54:13.146Z,54.03
2022-09-07T17:56:41.878Z,54.47
2022-09-07T18:01:58.656Z,54.11
2022-09-07T18:04:26.192Z,54.57
2022-09-07T18:06:54.443Z,54.54
2022-09-07T18:09:23.733Z,54.84
2022-09-07T18:11:51.259Z,54.36
2022-09-07T18:14:19.383Z,54.75
2022-09-07T18:16:49.407Z,54.17
2022-09-07T18:19:18.289Z,54.57
2022-09-07T18:21:46.808Z,54.31
2022-09-07T18:24:16.802Z,53.92
2022-09-07T18:26:51.545Z,54.19
2022-09-07T18:29:37.448Z,54.41
2022-09-07T18:32:08.524Z,54.34
2022-09-07T18:34:38.592Z,54.71
2022-09-07T18:37:06.263Z,54.35
2022-09-07T18:39:33.766Z,54.61
2022-09-07T18:42:03.087Z,53.98
2022-09-07T18:47:23.090Z,55.02
2022-09-07T18:49:55.245Z,54.97
2022-09-07T18:55:11.137Z,55.50
2022-09-07T18:57:40.899Z,55.75
2022-09-07T19:00:11.077Z,55.40
2022-09-07T19:02:39.035Z,55.96
2022-09-07T19:07:55.264Z,56.29
2022-09-07T19:10:23.127Z,56.67
2022-09-07T19:12:51.912Z,57.49
2022-09-07T19:15:19.531Z,57.93
2022-09-07T19:17:47.278Z,58.88
2022-09-07T19:20:14.999Z,58.70
2022-09-07T19:22:42.371Z,58.58
2022-09-07T19:25:10.359Z,58.34
2022-09-07T19:27:37.895Z,58.63
2022-09-07T19:30:07.721Z,58.85
2022-09-07T19:32:36.806Z,58.84
2022-09-07T19:35:04.953Z,59.37
2022-09-07T19:37:32.723Z,59.20
2022-09-07T19:40:00.664Z,59.70
2022-09-07T19:42:28.553Z,59.91
2022-09-07T19:44:55.915Z,60.14
2022-09-07T19:47:25.081Z,59.89
2022-09-07T19:49:52.645Z,59.83
2022-09-07T19:52:20.030Z,59.67
2022-09-07T19:54:47.603Z,59.26
2022-09-07T19:57:15.278Z,60.08
2022-09-07T19:59:42.605Z,59.82
2022-09-07T20:02:10.513Z,60.04
2022-09-07T20:04:39.338Z,60.08
2022-09-07T20:07:06.653Z,59.98
2022-09-07T20:09:34.437Z,60.21
2022-09-07T20:12:01.858Z,59.82
2022-09-07T20:14:29.191Z,60.23
2022-09-07T20:16:57.524Z,61.16
2022-09-07T20:19:24.821Z,60.81
2022-09-07T20:21:53.861Z,61.02
2022-09-07T20:24:21.726Z,61.31
2022-09-07T20:26:49.213Z,60.20
2022-09-07T20:29:27.446Z,60.95
2022-09-07T20:31:56.626Z,61.22
2022-09-07T20:34:24.116Z,61.90
2022-09-07T20:36:53.366Z,61.66
2022-09-07T20:39:21.410Z,61.73
2022-09-07T20:41:49.072Z,62.07
2022-09-07T20:44:16.674Z,62.37
2022-09-07T20:46:44.291Z,62.66
2022-09-07T20:49:11.925Z,62.33
2022-09-07T20:51:42.330Z,62.46
2022-09-07T20:54:11.462Z,62.30
2022-09-07T20:56:38.776Z,62.49
2022-09-07T20:59:06.178Z,62.92
2022-09-07T21:01:33.922Z,62.92
2022-09-07T21:04:01.806Z,63.71
2022-09-07T21:06:31.317Z,64.08
2022-09-07T21:08:59.683Z,64.68
2022-09-07T21:11:30.389Z,65.03
2022-09-07T21:13:59.551Z,65.24
2022-09-07T21:16:28.532Z,65.23
2022-09-07T21:18:57.565Z,65.05
2022-09-07T21:21:26.206Z,65.49
2022-09-07T21:23:57.967Z,65.69
2022-09-07T21:26:25.868Z,65.90
2022-09-07T21:28:59.450Z,66.59
2022-09-07T21:31:28.299Z,66.46
2022-09-07T21:33:56.466Z,66.64
2022-09-07T21:36:24.972Z,66.63
2022-09-07T21:38:53.404Z,66.43
2022-09-07T21:41:23.097Z,65.93
2022-09-07T21:43:54.870Z,65.90
2022-09-07T21:46:24.369Z,65.41
2022-09-07T21:48:51.689Z,65.91
2022-09-07T21:51:19.355Z,65.46
2022-09-07T21:53:51.374Z,65.17
2022-09-07T21:56:18.592Z,65.38
2022-09-07T21:58:46.526Z,65.36
2022-09-07T22:01:17.196Z,65.38
2022-09-07T22:03:48.420Z,65.45
2022-09-07T22:06:16.060Z,65.88
2022-09-07T22:08:43.673Z,66.16
2022-09-07T22:11:13.064Z,66.32
2022-09-07T22:13:40.727Z,67.15
2022-09-07T22:16:08.423Z,67.11
2022-09-07T22:18:36.481Z,67.48
2022-09-07T22:21:08.004Z,67.51
2022-09-07T22:23:37.022Z,67.71
2022-09-07T22:26:07.069Z,68.00
2022-09-07T22:28:36.784Z,68.24
2022-09-07T22:31:12.223Z,68.29
2022-09-07T22:33:40.047Z,68.42
2022-09-07T22:36:15.093Z,68.95
2022-09-07T22:38:44.774Z,69.00
2022-09-07T22:41:13.755Z,69.22
2022-09-07T22:43:42.032Z,69.69
2022-09-07T22:46:10.765Z,69.79
2022-09-07T22:48:38.262Z,69.92
2022-09-07T22:51:06.305Z,69.73
2022-09-07T22:53:37.047Z,70.07
2022-09-07T22:56:06.737Z,70.30
2022-09-07T22:58:34.511Z,70.38
2022-09-07T23:01:02.511Z,70.13
2022-09-07T23:03:31.151Z,70.45
2022-09-07T23:05:58.755Z,70.74
2022-09-07T23:08:27.394Z,70.82
2022-09-07T23:11:01.391Z,70.72
2022-09-07T23:13:28.916Z,70.99
2022-09-07T23:15:56.326Z,71.63
2022-09-07T23:18:23.572Z,71.08
2022-09-07T23:20:51.085Z,71.35
2022-09-07T23:23:18.527Z,71.26
2022-09-07T23:25:45.881Z,71.10
2022-09-07T23:28:14.987Z,71.14
2022-09-07T23:30:46.734Z,71.29
2022-09-07T23:33:14.021Z,71.47
2022-09-07T23:35:41.611Z,71.35
2022-09-07T23:38:09.505Z,71.09
2022-09-07T23:40:36.830Z,71.00
2022-09-07T23:43:04.365Z,70.43
2022-09-07T23:45:32.968Z,70.62
2022-09-07T23:48:00.308Z,70.56
2022-09-07T23:50:27.891Z,71.26
2022-09-07T23:52:55.066Z,71.89
2022-09-07T23:55:22.397Z,71.29
2022-09-07T23:57:49.853Z,71.42
